createdAt,value
2023-09-06T00:01:22.640Z,4.30
2023-09-06T00:03:49.327Z,3.75
2023-09-06T00:06:16.024Z,4.30
2023-09-06T00:08:42.758Z,4.20
2023-09-06T00:11:09.302Z,3.72
2023-09-06T00:13:36.546Z,4.05
2023-09-06T00:16:05.063Z,3.97
2023-09-06T00:18:32.572Z,4.32
2023-09-06T00:20:59.468Z,4.13
2023-09-06T00:23:26.580Z,4.47
2023-09-06T00:25:54.955Z,4.00
2023-09-06T00:28:21.835Z,4.43
2023-09-06T00:30:48.466Z,4.45
2023-09-06T00:33:15.091Z,4.20
2023-09-06T00:35:41.684Z,4.40
2023-09-06T00:38:08.626Z,4.22
2023-09-06T00:40:39.030Z,4.32
2023-09-06T00:43:07.392Z,4.28
2023-09-06T00:45:49.022Z,3.97
2023-09-06T00:48:20.915Z,4.38
2023-09-06T00:50:52.813Z,4.22
2023-09-06T00:53:21.384Z,4.68
2023-09-06T00:55:49.969Z,4.60
2023-09-06T00:58:18.573Z,4.80
2023-09-06T01:00:50.574Z,4.82
2023-09-06T01:03:18.811Z,4.60
2023-09-06T01:06:22.035Z,4.93
2023-09-06T01:08:56.455Z,4.82
2023-09-06T01:11:25.011Z,5.50
2023-09-06T01:13:56.594Z,5.05
2023-09-06T01:16:28.166Z,4.75
2023-09-06T01:18:54.950Z,5.07
2023-09-06T01:21:25.773Z,5.45
2023-09-06T01:23:52.910Z,5.75
2023-09-06T01:26:19.604Z,5.32
2023-09-06T01:28:46.524Z,5.47
2023-09-06T01:31:13.099Z,5.30
2023-09-06T01:33:40.617Z,5.32
2023-09-06T01:38:34.107Z,5.53
2023-09-06T01:41:03.412Z,5.32
2023-09-06T01:43:30.042Z,5.03
2023-09-06T01:45:56.953Z,5.30
2023-09-06T01:48:23.724Z,5.60
2023-09-06T01:50:50.496Z,5.90
2023-09-06T01:53:16.950Z,5.32
2023-09-06T01:55:44.736Z,5.85
2023-09-06T01:58:12.388Z,5.63
2023-09-06T02:00:39.533Z,5.90
2023-09-06T02:03:10.513Z,5.90
2023-09-06T02:05:37.395Z,5.30
2023-09-06T02:08:06.940Z,5.78
2023-09-06T02:10:33.482Z,5.50
2023-09-06T02:13:00.784Z,5.82
2023-09-06T02:15:27.442Z,5.18
2023-09-06T02:17:54.091Z,5.50
2023-09-06T02:20:22.166Z,5.90
2023-09-06T02:22:53.635Z,5.75
2023-09-06T02:25:25.825Z,6.30
2023-09-06T02:27:53.743Z,6.55
2023-09-06T02:30:21.455Z,5.93
2023-09-06T02:35:16.450Z,4.88
2023-09-06T02:37:43.185Z,5.43
2023-09-06T02:40:19.179Z,5.47
2023-09-06T02:42:45.803Z,5.43
2023-09-06T02:45:13.151Z,6.05
2023-09-06T02:47:49.292Z,5.40
2023-09-06T02:50:18.247Z,6.07
2023-09-06T02:52:46.499Z,5.70
2023-09-06T02:55:14.454Z,5.63
2023-09-06T02:57:42.793Z,6.30
2023-09-06T03:00:26.707Z,5.93
2023-09-06T03:03:06.750Z,5.25
2023-09-06T03:05:42.641Z,5.45
2023-09-06T03:08:10.864Z,5.00
2023-09-06T03:10:37.381Z,6.22
2023-09-06T03:13:06.399Z,5.47
2023-09-06T03:15:33.192Z,6.40
2023-09-06T03:18:00.083Z,6.60
2023-09-06T03:20:44.301Z,6.22
2023-09-06T03:23:19.214Z,6.68
2023-09-06T03:25:50.504Z,6.30
2023-09-06T03:28:19.889Z,5.90
2023-09-06T03:30:46.998Z,5.82
2023-09-06T03:33:13.560Z,5.43
2023-09-06T03:35:40.152Z,5.22
2023-09-06T03:38:09.994Z,5.88
2023-09-06T03:40:37.065Z,5.82
2023-09-06T03:43:16.431Z,5.80
2023-09-06T03:45:47.183Z,5.25
2023-09-06T03:48:18.984Z,5.45
2023-09-06T03:50:47.211Z,5.63
2023-09-06T03:53:16.269Z,5.18
2023-09-06T03:55:43.435Z,5.90
2023-09-06T03:58:11.894Z,5.95
2023-09-06T04:00:43.052Z,5.82
2023-09-06T04:03:09.661Z,6.03
2023-09-06T04:05:36.205Z,6.10
2023-09-06T04:08:08.251Z,6.07
2023-09-06T04:10:37.917Z,6.25
2023-09-06T04:13:08.330Z,5.90
2023-09-06T04:15:43.880Z,6.65
2023-09-06T04:18:11.823Z,6.38
2023-09-06T04:20:40.418Z,6.50
2023-09-06T04:23:14.365Z,6.93
2023-09-06T04:25:46.560Z,7.60
2023-09-06T04:28:15.260Z,6.55
2023-09-06T04:30:47.193Z,6.60
2023-09-06T04:33:15.509Z,7.35
2023-09-06T04:35:44.875Z,6.50
2023-09-06T04:38:19.389Z,7.18
2023-09-06T04:40:47.405Z,6.63
2023-09-06T04:43:20.317Z,6.60
2023-09-06T04:45:50.624Z,6.75
2023-09-06T04:48:20.359Z,6.72
2023-09-06T04:50:47.847Z,6.32
2023-09-06T04:53:18.731Z,6.57
2023-09-06T04:55:45.850Z,6.50
2023-09-06T04:58:12.801Z,6.72
2023-09-06T05:00:42.644Z,7.30
2023-09-06T05:03:12.140Z,7.93
2023-09-06T05:05:40.927Z,7.75
2023-09-06T05:08:08.040Z,8.27
2023-09-06T05:10:38.788Z,8.98
2023-09-06T05:13:13.018Z,8.73
2023-09-06T05:18:09.248Z,8.63
2023-09-06T05:20:39.033Z,8.18
2023-09-06T05:23:07.080Z,8.88
2023-09-06T05:25:34.517Z,10.00
2023-09-06T05:28:03.917Z,9.85
2023-09-06T05:30:31.021Z,9.68
2023-09-06T05:32:58.083Z,9.15
2023-09-06T05:35:25.700Z,9.63
2023-09-06T05:40:24.307Z,8.30
2023-09-06T05:42:51.574Z,8.63
2023-09-06T05:45:20.411Z,8.52
2023-09-06T05:47:47.042Z,8.65
2023-09-06T05:50:13.615Z,9.00
2023-09-06T05:52:40.055Z,8.73
2023-09-06T05:55:07.892Z,8.88
2023-09-06T05:57:34.902Z,8.45
2023-09-06T06:00:02.580Z,8.35
2023-09-06T06:02:32.188Z,7.70
2023-09-06T06:04:58.776Z,7.93
2023-09-06T06:07:25.373Z,8.82
2023-09-06T06:09:51.786Z,7.63
2023-09-06T06:12:23.787Z,6.47
2023-09-06T06:14:53.990Z,5.50
2023-09-06T06:17:20.581Z,5.57
2023-09-06T06:19:50.516Z,5.47
2023-09-06T06:22:17.009Z,5.32
2023-09-06T06:24:47.061Z,5.15
2023-09-06T06:27:14.585Z,4.53
2023-09-06T06:29:41.325Z,4.78
2023-09-06T06:32:08.418Z,4.68
2023-09-06T06:37:07.063Z,4.50
2023-09-06T06:39:33.790Z,3.47
2023-09-06T06:42:00.677Z,3.90
2023-09-06T06:44:27.260Z,3.45
2023-09-06T06:46:53.768Z,4.30
2023-09-06T06:49:20.943Z,3.75
2023-09-06T06:54:15.925Z,3.15
2023-09-06T06:56:43.437Z,3.30
2023-09-06T06:59:10.384Z,3.42
2023-09-06T07:01:37.705Z,3.63
2023-09-06T07:04:05.738Z,3.13
2023-09-06T07:06:32.792Z,3.13
2023-09-06T07:11:26.250Z,3.00
2023-09-06T07:16:21.399Z,3.33
2023-09-06T07:18:48.615Z,3.25
2023-09-06T07:21:16.336Z,3.00
2023-09-06T07:23:43.795Z,3.28
2023-09-06T07:26:11.102Z,3.45
2023-09-06T07:28:41.724Z,3.03
2023-09-06T07:31:09.057Z,2.97
2023-09-06T07:33:36.120Z,2.90
2023-09-06T07:36:02.680Z,3.25
2023-09-06T07:40:58.013Z,3.20
2023-09-06T07:43:26.906Z,3.30
2023-09-06T07:45:53.855Z,2.83
2023-09-06T07:48:20.788Z,3.00
2023-09-06T07:50:48.343Z,3.03
2023-09-06T07:53:15.051Z,3.10
2023-09-06T07:55:45.057Z,3.35
2023-09-06T07:58:12.202Z,3.33
2023-09-06T08:00:38.995Z,3.03
2023-09-06T08:03:05.913Z,3.05
2023-09-06T08:05:33.470Z,2.85
2023-09-06T08:08:00.339Z,3.30
2023-09-06T08:10:26.801Z,3.08
2023-09-06T08:12:53.336Z,3.60
2023-09-06T08:15:19.958Z,3.60
2023-09-06T08:17:48.592Z,3.03
2023-09-06T08:20:16.635Z,3.30
2023-09-06T08:22:46.572Z,3.50
2023-09-06T08:25:17.135Z,2.90
2023-09-06T08:27:43.712Z,3.10
2023-09-06T08:30:12.280Z,3.35
2023-09-06T08:32:40.056Z,3.28
2023-09-06T08:35:07.818Z,2.92
2023-09-06T08:37:35.180Z,3.17
2023-09-06T08:40:06.595Z,3.25
2023-09-06T08:42:34.806Z,3.00
2023-09-06T08:45:03.123Z,3.20
2023-09-06T08:47:29.964Z,3.47
2023-09-06T08:49:57.994Z,3.10
2023-09-06T08:52:25.743Z,3.03
2023-09-06T08:54:53.199Z,2.83
2023-09-06T08:57:22.370Z,3.22
2023-09-06T08:59:50.053Z,3.10
2023-09-06T09:02:17.307Z,3.20
2023-09-06T09:04:44.090Z,3.22
2023-09-06T09:07:14.389Z,3.15
2023-09-06T09:10:05.473Z,3.05
2023-09-06T09:12:32.962Z,2.88
2023-09-06T09:15:10.163Z,3.60
2023-09-06T09:17:57.428Z,3.10
2023-09-06T09:20:28.242Z,3.42
2023-09-06T09:22:59.434Z,2.97
2023-09-06T09:25:25.968Z,3.15
2023-09-06T09:27:56.949Z,3.20
2023-09-06T09:30:24.933Z,3.33
2023-09-06T09:33:03.234Z,2.85
2023-09-06T09:35:32.543Z,2.83
2023-09-06T09:38:00.917Z,3.13
2023-09-06T09:40:45.981Z,2.97
2023-09-06T09:43:18.591Z,3.30
2023-09-06T09:45:46.947Z,3.33
2023-09-06T09:48:16.124Z,2.95
2023-09-06T09:50:43.658Z,3.40
2023-09-06T09:53:21.134Z,3.22
2023-09-06T09:55:50.516Z,3.53
2023-09-06T09:58:20.999Z,3.33
2023-09-06T10:00:51.448Z,3.05
2023-09-06T10:03:19.756Z,3.40
2023-09-06T10:05:48.769Z,3.28
2023-09-06T10:08:19.006Z,3.15
2023-09-06T10:10:45.921Z,3.10
2023-09-06T10:13:15.844Z,3.30
2023-09-06T10:15:44.389Z,3.17
2023-09-06T10:18:12.305Z,3.45
2023-09-06T10:20:40.415Z,3.60
2023-09-06T10:23:08.626Z,3.35
2023-09-06T10:25:41.009Z,2.85
2023-09-06T10:28:08.636Z,3.10
2023-09-06T10:30:52.416Z,3.10
2023-09-06T10:33:34.079Z,3.53
2023-09-06T10:36:07.147Z,3.90
2023-09-06T10:38:36.673Z,3.42
2023-09-06T10:41:08.131Z,3.55
2023-09-06T10:43:56.450Z,3.40
2023-09-06T10:46:28.542Z,3.55
2023-09-06T10:49:13.852Z,3.33
2023-09-06T10:51:56.057Z,3.42
2023-09-06T10:54:35.287Z,3.40
2023-09-06T10:57:07.577Z,3.50
2023-09-06T10:59:37.985Z,3.42
2023-09-06T11:02:27.045Z,3.58
2023-09-06T11:05:11.253Z,3.60
2023-09-06T11:07:51.042Z,3.78
2023-09-06T11:10:24.639Z,3.58
2023-09-06T11:12:54.998Z,3.40
2023-09-06T11:15:22.362Z,3.53
2023-09-06T11:17:48.869Z,3.58
2023-09-06T11:22:53.147Z,3.30
2023-09-06T11:25:22.451Z,3.50
2023-09-06T11:27:51.040Z,3.70
2023-09-06T11:30:27.729Z,3.45
2023-09-06T11:32:56.395Z,3.25
2023-09-06T11:35:34.823Z,3.58
2023-09-06T11:38:02.100Z,3.70
2023-09-06T11:40:31.828Z,3.65
2023-09-06T11:43:05.679Z,3.67
2023-09-06T11:45:34.371Z,3.42
2023-09-06T11:48:06.863Z,3.72
2023-09-06T11:50:35.588Z,3.45
2023-09-06T11:53:05.957Z,3.13
2023-09-06T11:55:35.624Z,3.75
2023-09-06T11:58:02.435Z,3.72
2023-09-06T12:00:46.698Z,3.67
2023-09-06T12:03:14.467Z,3.40
2023-09-06T12:05:51.667Z,3.83
2023-09-06T12:08:23.914Z,3.53
2023-09-06T12:11:06.632Z,3.88
2023-09-06T12:13:38.522Z,3.80
2023-09-06T12:16:07.103Z,3.75
2023-09-06T12:18:35.943Z,3.88
2023-09-06T12:21:04.634Z,3.65
2023-09-06T12:23:31.804Z,3.58
2023-09-06T12:25:59.994Z,3.13
2023-09-06T12:28:29.188Z,3.55
2023-09-06T12:31:00.069Z,3.88
2023-09-06T12:33:28.722Z,4.05
2023-09-06T12:36:06.567Z,3.53
2023-09-06T12:38:33.573Z,3.70
2023-09-06T12:41:01.552Z,3.70
2023-09-06T12:43:28.167Z,3.70
2023-09-06T12:48:22.839Z,3.38
2023-09-06T12:50:50.558Z,3.65
2023-09-06T12:53:17.475Z,3.70
2023-09-06T12:55:46.657Z,3.60
2023-09-06T12:58:13.420Z,3.47
2023-09-06T13:00:40.062Z,3.33
2023-09-06T13:03:07.600Z,3.20
2023-09-06T13:05:34.256Z,3.53
2023-09-06T13:08:01.776Z,3.75
2023-09-06T13:10:30.144Z,3.50
2023-09-06T13:12:56.664Z,3.53
2023-09-06T13:15:23.556Z,3.47
2023-09-06T13:17:50.125Z,3.10
2023-09-06T13:22:44.649Z,3.40
2023-09-06T13:25:12.684Z,3.28
2023-09-06T13:27:39.804Z,3.40
2023-09-06T13:30:06.982Z,3.40
2023-09-06T13:32:33.666Z,2.70
2023-09-06T13:35:00.530Z,3.42
2023-09-06T13:37:28.084Z,3.25
2023-09-06T13:39:55.959Z,3.00
2023-09-06T13:42:22.540Z,3.20
2023-09-06T13:49:44.335Z,2.97
2023-09-06T13:52:13.447Z,3.00
2023-09-06T13:54:41.648Z,3.05
2023-09-06T13:57:08.540Z,3.13
2023-09-06T13:59:35.605Z,3.10
2023-09-06T14:02:02.193Z,2.70
2023-09-06T14:04:28.922Z,3.55
2023-09-06T14:06:55.663Z,3.13
2023-09-06T14:09:23.761Z,2.90
2023-09-06T14:11:50.750Z,4.15
2023-09-06T14:14:17.311Z,3.38
2023-09-06T14:19:11.025Z,3.15
2023-09-06T14:21:39.585Z,2.72
2023-09-06T14:24:06.286Z,3.05
2023-09-06T14:26:32.866Z,3.05
2023-09-06T14:31:27.055Z,2.95
2023-09-06T14:33:53.554Z,3.10
2023-09-06T14:36:20.067Z,2.85
2023-09-06T14:41:14.097Z,2.95
2023-09-06T14:43:40.683Z,3.00
2023-09-06T14:46:07.924Z,3.28
2023-09-06T14:48:34.874Z,2.92
2023-09-06T14:51:02.525Z,2.95
2023-09-06T14:53:29.450Z,3.15
2023-09-06T14:56:03.253Z,2.75
2023-09-06T14:58:30.942Z,2.92
2023-09-06T15:00:57.782Z,3.03
2023-09-06T15:03:24.746Z,3.08
2023-09-06T15:05:51.889Z,3.13
2023-09-06T15:08:18.745Z,2.90
2023-09-06T15:10:45.747Z,2.85
2023-09-06T15:13:15.920Z,2.88
2023-09-06T15:15:44.324Z,3.10
2023-09-06T15:18:10.874Z,2.83
2023-09-06T15:23:04.637Z,2.90
2023-09-06T15:25:31.490Z,2.83
2023-09-06T15:27:58.000Z,2.80
2023-09-06T15:30:24.804Z,2.72
2023-09-06T15:32:51.611Z,3.03
2023-09-06T15:38:04.842Z,2.88
2023-09-06T15:40:32.980Z,2.90
2023-09-06T15:42:59.464Z,2.80
2023-09-06T15:45:26.746Z,2.53
2023-09-06T15:47:54.385Z,2.75
2023-09-06T15:50:21.238Z,2.50
2023-09-06T15:52:48.787Z,2.45
2023-09-06T15:55:16.105Z,2.38
2023-09-06T15:57:44.392Z,2.45
2023-09-06T16:02:41.797Z,2.40
2023-09-06T16:05:09.716Z,2.40
2023-09-06T16:07:38.103Z,2.40
2023-09-06T16:10:05.594Z,2.30
2023-09-06T16:12:32.578Z,2.10
2023-09-06T16:15:00.390Z,2.53
2023-09-06T16:17:28.032Z,1.90
2023-09-06T16:19:54.553Z,2.15
2023-09-06T16:22:22.959Z,1.90
2023-09-06T16:24:50.513Z,2.25
2023-09-06T16:27:17.293Z,2.10
2023-09-06T16:29:44.815Z,2.08
2023-09-06T16:32:13.883Z,2.05
2023-09-06T16:34:40.761Z,2.03
2023-09-06T16:37:07.233Z,1.95
2023-09-06T16:39:35.097Z,1.80
2023-09-06T16:42:02.231Z,1.92
2023-09-06T16:44:30.325Z,2.10
2023-09-06T16:46:58.396Z,2.25
2023-09-06T16:49:25.825Z,2.00
2023-09-06T16:51:52.492Z,2.00
2023-09-06T16:54:19.665Z,1.85
2023-09-06T16:56:46.923Z,1.90
2023-09-06T16:59:13.985Z,2.10
2023-09-06T17:01:40.904Z,2.00
2023-09-06T17:04:08.818Z,1.75
2023-09-06T17:06:35.537Z,1.95
2023-09-06T17:09:02.473Z,1.80
2023-09-06T17:11:29.206Z,1.75
2023-09-06T17:13:55.633Z,1.80
2023-09-06T17:16:22.155Z,1.85
2023-09-06T17:18:48.765Z,2.00
2023-09-06T17:21:15.324Z,1.90
2023-09-06T17:23:53.250Z,1.80
2023-09-06T17:26:27.693Z,2.00
2023-09-06T17:28:54.431Z,1.85
2023-09-06T17:31:22.021Z,1.90
2023-09-06T17:33:49.592Z,1.83
2023-09-06T17:36:16.397Z,1.83
2023-09-06T17:41:10.222Z,1.70
2023-09-06T17:43:37.309Z,1.83
2023-09-06T17:46:07.099Z,1.90
2023-09-06T17:48:33.826Z,1.90
2023-09-06T17:51:08.716Z,2.10
2023-09-06T17:53:37.416Z,2.00
2023-09-06T17:56:16.384Z,2.20
2023-09-06T17:58:44.408Z,1.80
2023-09-06T18:01:13.905Z,2.00
2023-09-06T18:03:45.417Z,2.30
2023-09-06T18:06:14.959Z,1.83
2023-09-06T18:08:42.972Z,2.28
2023-09-06T18:11:10.039Z,2.00
2023-09-06T18:13:39.980Z,2.05
2023-09-06T18:16:12.089Z,2.22
2023-09-06T18:18:38.940Z,2.10
2023-09-06T18:21:10.119Z,2.35
2023-09-06T18:23:37.937Z,2.28
2023-09-06T18:26:05.401Z,2.03
2023-09-06T18:28:32.805Z,2.10
2023-09-06T18:31:00.228Z,2.38
2023-09-06T18:33:27.200Z,2.80
2023-09-06T18:35:56.588Z,2.05
2023-09-06T18:38:24.714Z,2.40
2023-09-06T18:40:54.353Z,2.70
2023-09-06T18:43:23.247Z,2.70
2023-09-06T18:45:49.934Z,3.00
2023-09-06T18:48:21.856Z,2.30
2023-09-06T18:50:50.720Z,2.70
2023-09-06T18:53:17.380Z,2.45
2023-09-06T18:55:47.777Z,3.35
2023-09-06T18:58:18.513Z,2.50
2023-09-06T19:00:45.972Z,2.95
2023-09-06T19:03:14.138Z,2.90
2023-09-06T19:05:42.357Z,3.55
2023-09-06T19:08:15.417Z,4.60
2023-09-06T19:10:43.303Z,4.15
2023-09-06T19:13:11.332Z,4.00
2023-09-06T19:15:37.875Z,3.50
2023-09-06T19:18:04.801Z,3.08
2023-09-06T19:20:31.361Z,2.88
2023-09-06T19:22:57.957Z,2.92
2023-09-06T19:25:28.556Z,2.97
2023-09-06T19:27:55.352Z,3.22
2023-09-06T19:30:22.330Z,3.03
2023-09-06T19:32:49.008Z,3.47
2023-09-06T19:35:15.600Z,3.40
2023-09-06T19:37:42.266Z,3.17
2023-09-06T19:40:11.316Z,3.25
2023-09-06T19:42:37.850Z,2.90
2023-09-06T19:45:04.667Z,3.50
2023-09-06T19:47:31.506Z,3.60
2023-09-06T19:52:24.663Z,3.40
2023-09-06T19:54:51.066Z,3.85
2023-09-06T19:57:18.140Z,3.35
2023-09-06T20:02:11.363Z,3.03
2023-09-06T20:04:39.517Z,2.88
2023-09-06T20:07:06.360Z,3.42
2023-09-06T20:09:33.052Z,3.38
2023-09-06T20:11:59.639Z,3.20
2023-09-06T20:14:28.957Z,3.88
2023-09-06T20:16:56.750Z,3.42
2023-09-06T20:19:24.505Z,3.28
2023-09-06T20:21:51.452Z,3.50
2023-09-06T20:24:18.168Z,3.38
2023-09-06T20:26:44.834Z,2.92
2023-09-06T20:29:11.522Z,3.30
2023-09-06T20:31:38.477Z,2.95
2023-09-06T20:34:05.375Z,3.13
2023-09-06T20:36:34.182Z,3.25
2023-09-06T20:39:00.738Z,3.22
2023-09-06T20:41:27.290Z,3.17
2023-09-06T20:43:53.845Z,3.40
2023-09-06T20:46:20.443Z,3.22
2023-09-06T20:48:47.480Z,2.97
2023-09-06T20:51:16.940Z,3.10
2023-09-06T20:53:44.557Z,3.08
2023-09-06T20:56:12.014Z,3.05
2023-09-06T20:58:39.172Z,3.20
2023-09-06T21:01:16.529Z,3.30
2023-09-06T21:03:43.398Z,3.33
2023-09-06T21:06:11.858Z,3.20
2023-09-06T21:08:39.901Z,3.60
2023-09-06T21:11:06.524Z,4.00
2023-09-06T21:13:34.152Z,3.60
2023-09-06T21:16:05.946Z,3.38
2023-09-06T21:18:33.028Z,3.70
2023-09-06T21:20:59.899Z,4.20
2023-09-06T21:23:26.531Z,3.72
2023-09-06T21:25:53.273Z,3.97
2023-09-06T21:28:20.022Z,3.50
2023-09-06T21:30:48.576Z,3.85
2023-09-06T21:33:15.740Z,3.95
2023-09-06T21:35:46.601Z,3.85
2023-09-06T21:38:13.778Z,3.60
2023-09-06T21:40:46.144Z,3.83
2023-09-06T21:43:18.362Z,3.58
2023-09-06T21:45:46.537Z,3.63
2023-09-06T21:50:41.917Z,3.70
2023-09-06T21:53:09.558Z,3.90
2023-09-06T21:55:36.357Z,4.05
2023-09-06T21:58:10.372Z,4.03
2023-09-06T22:00:37.698Z,3.92
2023-09-06T22:03:04.598Z,3.78
2023-09-06T22:05:31.194Z,4.03
2023-09-06T22:07:57.708Z,3.85
2023-09-06T22:10:24.561Z,3.60
2023-09-06T22:12:51.206Z,4.22
2023-09-06T22:15:17.738Z,4.05
2023-09-06T22:17:44.398Z,4.30
2023-09-06T22:20:11.210Z,4.20
2023-09-06T22:22:37.843Z,3.50
2023-09-06T22:25:06.372Z,3.83
2023-09-06T22:27:33.133Z,3.70
2023-09-06T22:29:59.736Z,4.13
2023-09-06T22:32:26.934Z,3.97
2023-09-06T22:34:53.679Z,4.47
2023-09-06T22:37:20.369Z,3.65
2023-09-06T22:39:46.944Z,3.35
2023-09-06T22:42:13.596Z,4.05
2023-09-06T22:44:40.186Z,4.47
2023-09-06T22:47:09.017Z,3.97
2023-09-06T22:49:38.347Z,4.05
2023-09-06T22:52:07.088Z,4.18
2023-09-06T22:54:37.017Z,4.00
2023-09-06T22:57:04.670Z,4.32
2023-09-06T22:59:31.785Z,4.18
2023-09-06T23:01:58.614Z,5.07
2023-09-06T23:04:25.201Z,5.50
2023-09-06T23:06:52.751Z,6.07
2023-09-06T23:09:20.831Z,6.03
2023-09-06T23:11:57.014Z,5.38
2023-09-06T23:14:25.053Z,5.78
2023-09-06T23:16:52.197Z,5.30
2023-09-06T23:21:56.404Z,5.22
2023-09-06T23:24:23.852Z,5.28
2023-09-06T23:26:59.562Z,5.15
2023-09-06T23:29:29.503Z,4.85
2023-09-06T23:32:00.026Z,5.68
2023-09-06T23:34:30.854Z,6.10
2023-09-06T23:36:58.797Z,5.88
2023-09-06T23:39:29.553Z,5.90
2023-09-06T23:41:57.802Z,5.90
2023-09-06T23:44:24.993Z,5.80
2023-09-06T23:46:51.852Z,5.32
2023-09-06T23:49:21.113Z,5.90
2023-09-06T23:51:48.179Z,5.35
2023-09-06T23:54:15.250Z,5.82
2023-09-06T23:56:42.099Z,5.90
2023-09-06T23:59:08.918Z,5.32
